A- A+ FrançaisEnglishEspañol中国

le plus proche LFRW Avranches-Le-Val-St-Pere LFBT Tarbes-Lourdes-PyrénéesLFRF Granville LFDU Lesparre-St-Laurent-De-Medoc

manche à air

La météo aéronautique pour les pilotes, la préparation du vol avec les METAR (METeorological Aerodrome Report, message d'observation des conditions météorologiques pour l'aviation) et Les TAF (Terminal Aerodrome Forecast : message de prévision à court terme des conditions météorologiques pour l'aviation). Et les autres ressources comme les VAC (Visual Approch Chart) et les NOTAM (Notice To Airman) pour préprer les vols.

Aéroport Wiesbaden (Allemagne) / OACI ETOU/ IATA WIE

L'altitude de l'aéroport Wiesbaden est de 141 m=463 ft. Il est situé à proximité de Wiesbaden (Allemagne). La météo générale à 5 jours est disponible pour Wallau situé à 3.5 km.

METAR de l'aéroport Wiesbaden - ETOU

ETOU 110756Z AUTO 00000KT 9999 OVC027 02/M02 A2993 RMK AO2 UPB42E51DZB51E52 SLP146 P0000 T00191017 $

Décodage du METAR de l'aéroport Wiesbaden (DE)

METAR émis par ETOU le mercredi 11 décembre 2019 à 07:56 heure TU. C'est un METAR généré automatiquement. Attention ce METAR est obsolète car il a été émis il y a 3 heure et 9 minutes.

La visibilité est de supérieure à 10 km=supérieure à 6.2 sm.

La température est de 2°C=36 °F et le point rosée est de -2°C=28 °F . Ce qui correspond à 75% d'humidité relative.

Le QNH est de 1014 hPa=29.94 inHg

Vent de 0 kt=0 km/h, orienté à 0°.

Nuages : Couverture nuageuse soudée à 2700 ft=820 mètres.

RMK AO2 précipitations indéterminées (station automatique) B42E51DZB51E52 SLP146 P0000 T00191017 $

TAF de l'aéroport Wiesbaden - ETOU

ETOU 110402Z 1104/1210 17006KT 9999 BKN050 620802 QNH2995INS

ETOU 110402Z 1104/1210 17006KT 9999 couverture nuageuse fragmentée à 050 620802 QNH2995INS

Aéroport à proximité de Wiesbaden

Météo générale à 5 jours à Wallau (3.5 km)EDFZ Aéroport Mainz - Finthen (16 km)EDDF Aéroport Frankfurt (18 km)EDGP Aéroport Oppenheim (23 km)EDFE Aéroport Egelsbach (25 km)EDFA Aéroport Anspach Taunus (30 km)EDEL Aéroport Langenlonsheim (34 km)

Vue aérienne de l'aéroport Wiesbaden

NOTAM de l'aéroport Wiesbaden

Les NOTAM sont fournis sans aucune garantie de leur actualité. Le pilote est le seul responsable de la vérification de sa validité avant de l'utiliser opérationnellement pour préparer un vol ou l'utiliser lors de sa navigation.

Pas de NOTAM

Sources des données